Time;durP1;ratioP1;P1;durP2;ratioP2;P2;SDS_P1;SDS_P2;PMS_P1;PMS_P2;Temp;Humidity;BMP_temperature;BMP_pressure;BME280_temperature;BME280_humidity;BME280_pressure;Samples;Min_cycle;Max_cycle;Signal;HPM_P1;HPM_P2
2022/12/22 03:26:29;;;;;;;1.50;0.25;;;;;;;3.63;73.25;99823.22;5016059;28;20088;-70
2022/12/22 03:28:56;;;;;;;4.68;0.30;;;;;;;3.66;73.22;99828.34;5020847;28;20049;-70
2022/12/22 03:31:23;;;;;;;1.85;0.20;;;;;;;3.65;72.98;99825.78;5017857;28;20050;-70
2022/12/22 03:33:51;;;;;;;2.83;0.30;;;;;;;3.65;73.05;99820.63;5020278;28;20049;-70
2022/12/22 03:36:18;;;;;;;1.20;0.25;;;;;;;3.62;72.99;99816.34;5018253;28;20049;-70
2022/12/22 03:38:44;;;;;;;5.60;0.50;;;;;;;3.61;73.46;99809.44;5022434;28;20053;-70
2022/12/22 03:46:29;;;;;;;8.75;0.77;;;;;;;3.59;73.45;99814.63;5019922;28;20409;-69
2022/12/22 03:46:42;;;;;;;2.22;0.82;;;;;;;3.56;73.46;99816.38;5021505;28;20110;-70
2022/12/22 03:49:11;;;;;;;1.95;0.40;;;;;;;3.58;73.48;99819.78;5022208;28;20054;-70
2022/12/22 03:51:40;;;;;;;3.60;0.30;;;;;;;3.46;73.51;99804.38;5017819;28;20053;-70
2022/12/22 03:54:08;;;;;;;2.75;0.30;;;;;;;3.51;73.33;99818.13;5017643;28;20486;-70
2022/12/22 03:56:35;;;;;;;2.17;0.20;;;;;;;3.55;73.50;99819.81;5022340;28;20141;-70
2022/12/22 03:59:02;;;;;;;1.17;0.30;;;;;;;3.55;73.74;99827.56;5016601;28;20046;-70
2022/12/22 04:01:29;;;;;;;5.45;1.48;;;;;;;3.54;73.24;99818.94;5019134;28;20050;-70
2022/12/22 04:03:56;;;;;;;7.72;0.30;;;;;;;3.53;73.37;99821.53;5020618;28;20059;-70
2022/12/22 04:06:24;;;;;;;2.35;0.38;;;;;;;3.53;73.55;99829.28;5014533;28;20061;-70
2022/12/22 04:08:51;;;;;;;1.15;0.30;;;;;;;3.51;73.38;99824.13;5014235;28;20052;-70
2022/12/22 04:14:02;;;;;;;1.80;0.30;;;;;;;3.50;73.90;99811.22;5018851;28;20060;-70
2022/12/22 04:16:30;;;;;;;1.30;0.20;;;;;;;3.50;73.52;99817.25;5019518;28;20041;-68
2022/12/22 04:18:57;;;;;;;4.78;0.47;;;;;;;3.50;74.00;99806.06;5016001;28;20044;-69
2022/12/22 04:21:26;;;;;;;2.45;0.35;;;;;;;3.50;73.68;99800.88;5017722;28;20050;-70
2022/12/22 04:23:53;;;;;;;4.93;0.47;;;;;;;3.50;74.00;99803.47;5024205;28;20592;-70
2022/12/22 04:26:21;;;;;;;4.70;0.30;;;;;;;3.50;73.50;99790.56;5021572;28;20076;-70
2022/12/22 04:28:48;;;;;;;5.28;0.90;;;;;;;3.49;74.07;99788.84;5019361;28;20054;-70
2022/12/22 04:31:14;;;;;;;5.45;0.30;;;;;;;3.48;74.13;99787.16;5016724;28;20045;-70
2022/12/22 04:33:41;;;;;;;0.70;0.30;;;;;;;3.47;74.08;99775.97;5021126;28;20045;-70
2022/12/22 04:36:09;;;;;;;4.32;0.30;;;;;;;3.48;73.86;99771.66;5015702;28;20061;-70
2022/12/22 04:38:38;;;;;;;5.25;0.30;;;;;;;3.48;74.04;99777.69;5001909;28;20047;-70
2022/12/22 04:41:06;;;;;;;6.07;0.85;;;;;;;3.49;74.04;99769.06;5018015;28;20048;-70
2022/12/22 04:43:33;;;;;;;2.15;0.20;;;;;;;3.48;74.14;99769.06;5020743;28;20068;-70
2022/12/22 04:46:00;;;;;;;3.45;0.30;;;;;;;3.50;74.13;99780.22;5017309;28;20046;-69
2022/12/22 04:48:28;;;;;;;2.97;0.32;;;;;;;3.48;73.82;99769.94;5015964;28;20059;-70
2022/12/22 04:50:57;;;;;;;4.85;0.25;;;;;;;3.48;73.95;99766.50;5017428;28;20600;-69
2022/12/22 04:53:25;;;;;;;3.38;0.40;;;;;;;3.49;73.99;99757.88;5020090;28;20127;-70
2022/12/22 04:55:57;;;;;;;5.72;0.30;;;;;;;3.50;74.16;99764.75;5019267;28;20573;-70
2022/12/22 04:58:24;;;;;;;5.05;1.05;;;;;;;3.51;73.93;99767.34;5019874;28;20045;-70
2022/12/22 05:00:51;;;;;;;2.75;0.20;;;;;;;3.49;74.20;99763.03;5019439;28;20054;-70
2022/12/22 05:03:18;;;;;;;3.38;0.35;;;;;;;3.51;74.22;99761.31;5016427;28;20412;-70
2022/12/22 05:05:45;;;;;;;1.95;0.20;;;;;;;3.51;73.86;99761.31;5015916;28;20042;-70
2022/12/22 05:08:13;;;;;;;2.45;0.30;;;;;;;3.51;73.74;99763.91;5013687;28;20057;-69
2022/12/22 05:10:39;;;;;;;1.13;0.30;;;;;;;3.51;74.08;99769.91;5019738;28;20055;-70
2022/12/22 05:13:08;;;;;;;1.48;0.30;;;;;;;3.53;74.33;99767.31;5016828;28;20045;-69
2022/12/22 05:15:35;;;;;;;2.75;0.30;;;;;;;3.53;73.92;99759.56;5018314;28;20124;-70
2022/12/22 05:18:03;;;;;;;5.65;0.88;;;;;;;3.54;73.83;99756.13;5014206;28;20053;-70
2022/12/22 05:20:30;;;;;;;2.17;0.28;;;;;;;3.54;73.89;99756.13;5013126;28;20048;-70
2022/12/22 05:22:58;;;;;;;2.25;0.30;;;;;;;3.53;73.91;99746.66;5018334;28;20053;-70
2022/12/22 05:25:25;;;;;;;1.95;0.30;;;;;;;3.54;74.37;99750.97;5021422;28;20049;-70
2022/12/22 05:27:51;;;;;;;1.60;0.82;;;;;;;3.53;74.01;99750.13;5019863;28;20059;-70
2022/12/22 05:30:20;;;;;;;2.25;1.15;;;;;;;3.55;74.05;99748.34;5016577;28;20394;-70
2022/12/22 05:32:48;;;;;;;2.78;1.42;;;;;;;3.56;74.31;99755.25;5016427;28;20594;-70
2022/12/22 05:35:15;;;;;;;0.68;0.22;;;;;;;3.57;74.04;99748.34;5016963;28;20052;-70
2022/12/22 05:37:42;;;;;;;1.85;0.30;;;;;;;3.57;74.29;99744.03;5012784;28;20042;-70
2022/12/22 05:40:10;;;;;;;3.45;0.30;;;;;;;3.58;74.11;99742.31;5014588;28;20042;-70
2022/12/22 05:42:38;;;;;;;1.55;0.20;;;;;;;3.59;74.05;99744.91;5018333;28;20517;-70
2022/12/22 05:45:11;;;;;;;2.35;0.20;;;;;;;3.59;74.42;99739.75;5018574;28;20049;-70
2022/12/22 05:47:39;;;;;;;1.23;0.20;;;;;;;3.60;74.04;99758.66;5024075;28;20056;-70
2022/12/22 05:50:07;;;;;;;3.83;0.40;;;;;;;3.63;74.08;99765.53;5016066;28;20041;-69
2022/12/22 05:52:34;;;;;;;6.72;0.43;;;;;;;3.58;74.44;99744.91;5018528;28;20052;-69
2022/12/22 05:55:01;;;;;;;0.63;0.20;;;;;;;3.63;74.41;99757.78;5022382;28;20053;-69
2022/12/22 05:57:28;;;;;;;2.40;0.20;;;;;;;3.63;74.64;99752.63;5021894;28;20056;-69
2022/12/22 05:59:55;;;;;;;3.35;0.30;;;;;;;3.63;74.06;99735.41;5027214;28;20060;-69
2022/12/22 06:02:22;;;;;;;4.88;0.30;;;;;;;3.63;74.19;99737.97;5024647;28;20852;-69
2022/12/22 06:04:51;;;;;;;0.80;0.30;;;;;;;3.65;74.00;99731.09;5022095;28;20041;-69
2022/12/22 06:07:18;;;;;;;1.05;0.30;;;;;;;3.60;73.98;99728.53;5017258;28;20069;-69
2022/12/22 06:09:45;;;;;;;2.83;0.20;;;;;;;3.63;74.29;99732.81;5021738;28;20054;-69
2022/12/22 06:12:11;;;;;;;0.43;0.22;;;;;;;3.66;74.44;99734.53;5017112;28;20045;-69
2022/12/22 06:14:38;;;;;;;2.20;0.20;;;;;;;3.65;73.92;99738.00;5020455;28;20057;-69
2022/12/22 06:17:05;;;;;;;1.02;0.20;;;;;;;3.61;74.21;99731.97;5018345;28;20050;-69
2022/12/22 06:19:32;;;;;;;0.77;0.20;;;;;;;3.65;73.83;99741.41;5019647;28;20191;-69
2022/12/22 06:22:01;;;;;;;0.80;0.20;;;;;;;3.66;74.12;99750.03;5021674;28;20045;-69
2022/12/22 06:24:28;;;;;;;3.53;0.40;;;;;;;3.64;74.29;99744.84;5020618;28;20080;-69
2022/12/22 06:26:54;;;;;;;0.65;0.20;;;;;;;3.64;74.19;99747.44;5022456;28;20068;-69
2022/12/22 06:29:21;;;;;;;3.05;0.85;;;;;;;3.65;73.91;99749.16;5020839;28;20791;-69
2022/12/22 06:31:48;;;;;;;2.75;0.32;;;;;;;3.63;74.30;99745.72;5029121;28;20468;-69
2022/12/22 06:34:16;;;;;;;0.85;0.22;;;;;;;3.66;74.34;99755.19;5023861;28;20045;-69
2022/12/22 06:36:44;;;;;;;0.93;0.20;;;;;;;3.66;74.10;99756.03;5024806;28;20046;-69
2022/12/22 06:39:13;;;;;;;3.25;0.28;;;;;;;3.66;74.33;99750.88;5019138;28;20049;-69
2022/12/22 06:44:24;;;;;;;2.72;0.40;;;;;;;3.66;74.00;99761.19;5019822;28;20524;-71
2022/12/22 06:46:51;;;;;;;1.63;0.22;;;;;;;3.66;74.13;99766.38;5021451;28;20042;-70
2022/12/22 06:49:18;;;;;;;0.60;0.30;;;;;;;3.67;74.06;99762.06;5018974;28;20518;-71
2022/12/22 06:51:44;;;;;;;0.80;0.28;;;;;;;3.67;73.79;99768.09;5020387;28;20161;-71
2022/12/22 06:54:13;;;;;;;3.50;0.32;;;;;;;3.66;74.33;99760.34;5019823;28;20045;-70
2022/12/22 06:56:40;;;;;;;0.85;0.30;;;;;;;3.68;73.91;99764.63;5020868;28;20045;-71
2022/12/22 06:59:07;;;;;;;0.70;0.40;;;;;;;3.68;73.90;99759.47;5015135;28;20052;-71
2022/12/22 07:01:34;;;;;;;0.68;0.30;;;;;;;3.69;73.95;99750.84;5024456;28;20048;-71
2022/12/22 07:04:01;;;;;;;3.08;0.35;;;;;;;3.68;74.08;99751.72;5020023;28;20157;-71
2022/12/22 07:06:28;;;;;;;1.40;0.30;;;;;;;3.67;73.96;99744.88;5022041;28;20045;-72
2022/12/22 07:08:55;;;;;;;2.55;0.85;;;;;;;3.68;73.87;99759.47;5022087;28;20113;-71
2022/12/22 07:11:23;;;;;;;1.88;0.30;;;;;;;3.70;74.09;99764.63;5023813;28;20410;-71
2022/12/22 07:13:50;;;;;;;3.13;0.38;;;;;;;3.68;74.19;99754.31;5018643;28;20060;-71
2022/12/22 07:16:16;;;;;;;2.90;0.30;;;;;;;3.67;74.26;99749.16;5015109;28;20054;-71
2022/12/22 07:18:44;;;;;;;2.05;0.30;;;;;;;3.59;73.92;99733.72;5015884;28;20056;-72
2022/12/22 07:21:13;;;;;;;2.50;0.20;;;;;;;3.69;73.92;99756.00;5022464;28;20041;-71
2022/12/22 07:23:41;;;;;;;0.40;0.20;;;;;;;3.69;74.07;99752.59;5021374;28;20866;-71
2022/12/22 07:26:09;;;;;;;1.92;0.30;;;;;;;3.70;73.75;99742.25;5023294;28;20052;-72
2022/12/22 07:28:40;;;;;;;2.83;0.30;;;;;;;3.71;74.08;99737.94;5019575;28;20049;-71
2022/12/22 07:31:07;;;;;;;5.20;0.35;;;;;;;3.70;74.03;99737.09;5022879;28;20055;-70
2022/12/22 07:33:35;;;;;;;1.27;0.30;;;;;;;3.70;73.79;99747.41;5021945;28;20038;-72
2022/12/22 07:36:07;;;;;;;1.05;0.30;;;;;;;3.71;73.84;99743.97;5023882;28;20052;-72
2022/12/22 07:38:39;;;;;;;1.75;0.40;;;;;;;3.70;73.73;99746.53;5021985;28;20048;-71
2022/12/22 07:42:43;;;;;;;2.40;0.35;;;;;;;3.70;73.64;99752.59;5024235;28;20046;-71
2022/12/22 07:43:56;;;;;;;2.72;0.30;;;;;;;3.70;74.14;99752.59;5021601;28;20123;-71
2022/12/22 07:46:24;;;;;;;0.68;0.68;;;;;;;3.69;73.94;99750.84;5022316;28;20061;-72
2022/12/22 07:51:38;;;;;;;0.88;0.20;;;;;;;3.71;74.08;99763.78;5021834;28;20117;-71
2022/12/22 07:54:06;;;;;;;2.08;0.28;;;;;;;3.68;73.64;99759.47;5019928;28;20524;-70
2022/12/22 07:56:33;;;;;;;1.95;0.50;;;;;;;3.70;73.80;99762.03;5018259;28;20042;-71
2022/12/22 07:59:01;;;;;;;2.55;0.20;;;;;;;3.68;74.10;99754.31;5021200;28;20046;-72
2022/12/22 08:01:28;;;;;;;4.40;0.40;;;;;;;3.70;73.83;99757.75;5019967;28;20818;-71
2022/12/22 08:03:55;;;;;;;4.45;0.40;;;;;;;3.71;73.82;99750.84;5018652;28;20057;-71
2022/12/22 08:06:22;;;;;;;0.82;0.20;;;;;;;3.71;73.79;99751.72;5018292;28;20096;-71
2022/12/22 08:08:50;;;;;;;1.20;0.20;;;;;;;3.68;73.75;99733.66;5025296;28;20056;-71
2022/12/22 08:11:16;;;;;;;3.72;0.30;;;;;;;3.72;74.25;99745.66;5022450;28;20048;-71
2022/12/22 08:13:43;;;;;;;1.38;0.50;;;;;;;3.72;73.71;99740.50;5016996;28;20053;-71
2022/12/22 08:16:13;;;;;;;3.85;0.20;;;;;;;3.73;73.71;99731.91;5018849;28;20184;-72
2022/12/22 08:18:40;;;;;;;2.47;0.25;;;;;;;3.74;74.02;99737.91;5015400;28;20069;-71
2022/12/22 08:21:08;;;;;;;2.05;0.22;;;;;;;3.73;73.98;99724.16;5018074;28;20473;-72
2022/12/22 08:23:36;;;;;;;2.55;0.17;;;;;;;3.74;73.98;99723.28;5020144;28;20049;-71
2022/12/22 08:26:09;;;;;;;0.93;0.20;;;;;;;3.75;74.20;99724.97;5022018;28;20259;-71
2022/12/22 08:28:44;;;;;;;1.95;0.25;;;;;;;3.73;74.09;99721.56;5023991;28;20057;-71
2022/12/22 08:31:12;;;;;;;1.10;0.22;;;;;;;3.74;73.87;99723.28;5020313;28;20053;-71
2022/12/22 08:33:39;;;;;;;5.15;0.50;;;;;;;3.75;74.15;99724.97;5018455;28;20441;-72
2022/12/22 08:36:07;;;;;;;2.97;0.30;;;;;;;3.77;73.79;99728.41;5021026;28;20128;-71
2022/12/22 08:38:35;;;;;;;1.80;0.30;;;;;;;3.79;74.06;99725.81;5018825;28;20060;-72
2022/12/22 08:41:02;;;;;;;5.68;0.98;;;;;;;3.79;73.81;99728.41;5021289;28;20577;-72
2022/12/22 08:43:31;;;;;;;4.22;0.30;;;;;;;3.79;74.31;99725.81;5020450;28;20805;-72
2022/12/22 08:45:58;;;;;;;0.90;0.25;;;;;;;3.80;74.47;99727.53;5018546;28;20042;-71
2022/12/22 08:48:26;;;;;;;2.40;0.20;;;;;;;3.81;73.90;99714.63;5015267;28;20053;-71
2022/12/22 08:50:53;;;;;;;4.75;0.28;;;;;;;3.81;74.01;99719.78;5021647;28;20063;-72
2022/12/22 08:53:20;;;;;;;2.78;0.40;;;;;;;3.81;74.13;99719.78;5015003;28;20046;-71
2022/12/22 08:55:52;;;;;;;1.63;0.20;;;;;;;3.81;73.91;99716.31;5018515;28;20870;-71
2022/12/22 08:58:19;;;;;;;4.13;0.50;;;;;;;3.78;73.99;99703.44;5017439;28;20057;-71
2022/12/22 09:00:46;;;;;;;6.32;0.20;;;;;;;3.85;74.14;99709.44;5016195;28;20046;-71
2022/12/22 09:03:13;;;;;;;2.47;0.20;;;;;;;3.85;74.26;99704.25;5021697;28;20056;-71
2022/12/22 09:05:41;;;;;;;1.35;0.30;;;;;;;3.87;74.33;99702.50;5014654;28;20057;-72
2022/12/22 09:08:08;;;;;;;4.38;0.20;;;;;;;3.88;74.31;99699.06;5019496;28;20057;-71
2022/12/22 09:10:35;;;;;;;3.88;0.52;;;;;;;3.88;73.97;99702.50;5014997;28;20049;-71
2022/12/22 09:13:02;;;;;;;3.53;0.20;;;;;;;3.89;74.07;99705.94;5018059;28;20050;-72
2022/12/22 09:15:29;;;;;;;2.08;0.20;;;;;;;3.90;73.87;99702.47;5018681;28;20071;-72
2022/12/22 09:17:56;;;;;;;1.67;0.30;;;;;;;3.90;73.86;99698.19;5018904;28;20051;-70
2022/12/22 09:20:23;;;;;;;1.33;0.30;;;;;;;3.90;74.10;99702.47;5019205;28;20473;-70
2022/12/22 09:22:51;;;;;;;1.88;0.20;;;;;;;3.91;74.04;99704.19;5014957;28;20050;-71
2022/12/22 09:25:18;;;;;;;1.40;0.20;;;;;;;3.92;74.07;99709.34;5018903;28;20437;-73
2022/12/22 09:27:45;;;;;;;2.72;1.15;;;;;;;3.93;74.12;99705.06;5014697;28;20045;-72
2022/12/22 09:30:12;;;;;;;7.03;0.80;;;;;;;3.90;73.99;99693.00;5019440;28;20416;-71
2022/12/22 09:32:39;;;;;;;4.60;0.20;;;;;;;3.92;74.18;99701.59;5015752;28;20045;-72
2022/12/22 09:35:07;;;;;;;3.22;0.20;;;;;;;3.94;74.25;99704.19;5013534;28;20046;-71
2022/12/22 09:37:34;;;;;;;4.40;0.20;;;;;;;3.96;74.18;99710.19;5017226;28;20413;-71
2022/12/22 09:40:02;;;;;;;4.35;0.30;;;;;;;3.97;74.16;99709.31;5016408;28;20065;-71
2022/12/22 09:42:34;;;;;;;3.95;0.30;;;;;;;3.98;74.00;99709.28;5013294;28;20537;-70
2022/12/22 09:45:01;;;;;;;1.98;0.38;;;;;;;3.98;74.13;99706.69;5015857;28;20410;-73
2022/12/22 09:47:34;;;;;;;3.40;0.95;;;;;;;3.99;74.19;99697.25;5017480;28;20057;-72
2022/12/22 09:50:02;;;;;;;8.48;0.50;;;;;;;4.00;74.10;99702.38;5016084;28;20121;-72
2022/12/22 09:52:44;;;;;;;4.43;0.32;;;;;;;4.01;73.93;99698.06;5017181;28;20562;-71
2022/12/22 09:55:26;;;;;;;3.72;0.22;;;;;;;4.01;73.84;99700.66;5020944;28;20516;-73
2022/12/22 09:57:54;;;;;;;5.22;0.30;;;;;;;4.01;74.08;99698.06;5017604;28;20061;-74
2022/12/22 10:00:25;;;;;;;4.30;0.22;;;;;;;4.04;74.15;99700.63;5020438;28;20049;-73
2022/12/22 10:03:00;;;;;;;4.70;0.40;;;;;;;4.05;74.16;99703.19;5019254;28;20053;-72
2022/12/22 10:05:37;;;;;;;3.22;0.20;;;;;;;4.06;73.92;99698.88;5014650;28;20057;-72
2022/12/22 10:08:10;;;;;;;6.07;0.40;;;;;;;4.06;74.04;99699.75;5016444;28;20050;-73
2022/12/22 10:10:39;;;;;;;2.78;0.20;;;;;;;4.02;74.10;99684.28;5013309;28;20056;-73
2022/12/22 10:13:07;;;;;;;3.97;0.30;;;;;;;4.09;74.16;99690.25;5004905;28;20042;-72
2022/12/22 10:15:39;;;;;;;1.52;0.25;;;;;;;4.11;74.17;99684.19;5006313;28;20057;-72
2022/12/22 10:18:11;;;;;;;3.42;0.38;;;;;;;4.12;74.24;99691.06;5017548;28;20501;-72
2022/12/22 10:20:38;;;;;;;8.00;0.57;;;;;;;4.13;73.99;99682.47;5016023;28;20390;-71
2022/12/22 10:23:16;;;;;;;1.13;0.20;;;;;;;4.05;74.22;99666.19;5017062;28;20053;-71
2022/12/22 10:26:00;;;;;;;3.70;0.30;;;;;;;4.16;74.28;99684.16;5015734;28;20045;-70
2022/12/22 10:28:29;;;;;;;2.35;0.50;;;;;;;4.17;74.02;99684.13;5017022;28;20125;-70
2022/12/22 10:31:15;;;;;;;4.45;0.65;;;;;;;4.19;74.15;99684.13;5021376;28;20071;-71
2022/12/22 10:33:44;;;;;;;2.30;0.32;;;;;;;4.19;73.86;99684.13;5018029;28;20050;-70
2022/12/22 10:36:12;;;;;;;3.00;0.20;;;;;;;4.19;73.97;99682.41;5018981;28;20128;-72
2022/12/22 10:38:52;;;;;;;3.50;0.30;;;;;;;4.16;73.84;99676.41;5022466;28;20056;-72
2022/12/22 10:41:22;;;;;;;3.47;0.43;;;;;;;4.20;73.65;99678.94;5020065;28;20474;-72
2022/12/22 10:43:52;;;;;;;1.58;0.40;;;;;;;4.20;73.52;99680.66;5023012;28;20085;-71
2022/12/22 10:46:20;;;;;;;4.63;0.30;;;;;;;4.20;73.87;99681.53;5019393;28;20532;-72
2022/12/22 10:48:47;;;;;;;1.80;0.20;;;;;;;4.20;73.84;99681.53;5021106;28;20850;-74
2022/12/22 10:51:15;;;;;;;2.65;0.30;;;;;;;4.20;73.85;99680.66;5018476;28;20042;-72
2022/12/22 10:53:46;;;;;;;3.10;0.30;;;;;;;4.21;73.70;99670.31;5020661;28;20489;-72
2022/12/22 10:56:30;;;;;;;4.57;0.20;;;;;;;4.23;73.36;99678.91;5013449;28;20046;-72
2022/12/22 10:59:13;;;;;;;1.80;0.20;;;;;;;4.21;73.58;99657.41;5018336;28;20165;-72
2022/12/22 11:01:40;;;;;;;5.55;0.30;;;;;;;4.21;73.47;99662.56;5018390;28;20422;-72
2022/12/22 11:04:26;;;;;;;1.80;0.20;;;;;;;4.21;73.59;99662.56;5018922;28;20505;-71
2022/12/22 11:06:54;;;;;;;;;;;;;;;4.20;73.31;99668.59;5017698;28;20428;-72
2022/12/22 11:09:21;;;;;;;3.35;0.25;;;;;;;4.17;73.23;99681.56;5018497;28;19924;-72
2022/12/22 11:11:54;;;;;;;0.93;0.20;;;;;;;4.16;73.26;99668.66;5017991;28;20458;-73
2022/12/22 11:14:31;;;;;;;3.63;0.25;;;;;;;4.16;73.32;99663.50;5017502;28;20046;-72
2022/12/22 11:17:03;;;;;;;1.13;0.20;;;;;;;4.01;73.19;99639.53;5018983;28;20052;-72
2022/12/22 11:19:48;;;;;;;4.32;0.50;;;;;;;4.13;72.95;99659.22;5018655;28;20041;-72
2022/12/22 11:22:28;;;;;;;2.97;0.22;;;;;;;4.14;73.09;99662.66;5015971;28;20053;-72
2022/12/22 11:25:21;;;;;;;3.10;0.30;;;;;;;4.11;73.14;99660.94;5020677;28;20054;-72
2022/12/22 11:28:00;;;;;;;5.70;1.00;;;;;;;4.10;73.12;99663.53;5018281;28;20042;-72
2022/12/22 11:30:36;;;;;;;5.93;1.40;;;;;;;4.09;73.01;99667.00;5020722;28;20060;-72
2022/12/22 11:33:23;;;;;;;4.25;1.23;;;;;;;4.06;73.35;99667.88;5021132;28;20637;-72
2022/12/22 11:35:58;;;;;;;1.98;0.68;;;;;;;4.04;72.96;99667.03;5019426;28;20057;-73
2022/12/22 11:38:46;;;;;;;6.45;0.25;;;;;;;4.03;72.77;99665.31;5018766;28;20067;-72
2022/12/22 11:41:34;;;;;;;9.85;1.55;;;;;;;4.01;72.96;99662.78;5018032;28;20042;-71
2022/12/22 11:44:19;;;;;;;9.55;1.95;;;;;;;4.00;73.04;99661.03;5017493;28;20690;-72
2022/12/22 11:46:52;;;;;;;4.05;1.05;;;;;;;3.98;73.35;99661.91;5017257;28;20073;-72
2022/12/22 11:49:43;;;;;;;5.47;1.45;;;;;;;3.98;73.19;99664.50;5020418;28;20433;-72
2022/12/22 11:52:24;;;;;;;6.20;0.40;;;;;;;3.97;73.60;99663.66;5017696;28;20140;-72
2022/12/22 11:55:28;;;;;;;2.15;0.40;;;;;;;3.97;73.46;99666.25;5016963;28;20054;-72
2022/12/22 11:58:05;;;;;;;3.92;0.30;;;;;;;3.97;73.48;99663.66;5014978;28;20056;-72
2022/12/22 12:00:40;;;;;;;2.35;0.32;;;;;;;3.88;73.44;99644.81;5013797;28;20056;-72
2022/12/22 12:03:55;;;;;;;1.30;0.30;;;;;;;3.96;73.06;99656.78;5017299;28;20050;-72
2022/12/22 12:06:35;;;;;;;1.88;0.30;;;;;;;3.96;73.35;99666.28;5003142;28;20395;-72
2022/12/22 12:09:19;;;;;;;9.18;0.60;;;;;;;3.95;73.33;99651.63;5018989;28;20069;-72
2022/12/22 12:11:53;;;;;;;8.00;0.30;;;;;;;3.94;73.52;99647.34;5018493;28;20060;-72
2022/12/22 12:14:27;;;;;;;1.58;0.40;;;;;;;3.95;73.39;99649.88;5016983;28;20567;-72
2022/12/22 12:16:59;;;;;;;7.00;0.30;;;;;;;3.95;73.64;99646.44;5019993;28;20424;-72
2022/12/22 12:19:52;;;;;;;5.35;0.45;;;;;;;3.96;73.28;99643.00;5020520;28;20046;-73
2022/12/22 12:22:31;;;;;;;6.60;0.30;;;;;;;3.95;73.31;99643.88;5019264;28;20732;-72
2022/12/22 12:25:01;;;;;;;2.20;0.20;;;;;;;3.94;73.38;99644.75;5017381;28;20048;-72
2022/12/22 12:27:53;;;;;;;5.82;0.40;;;;;;;3.92;73.23;99643.91;5017175;28;20050;-72
2022/12/22 12:30:22;;;;;;;4.47;0.90;;;;;;;3.88;73.34;99637.06;5021831;28;20589;-72
2022/12/22 12:32:55;;;;;;;2.85;0.40;;;;;;;3.88;73.41;99632.75;5020235;28;20047;-72
2022/12/22 12:35:37;;;;;;;6.32;0.63;;;;;;;3.87;73.24;99633.63;5017640;28;20124;-72
2022/12/22 12:38:11;;;;;;;1.48;0.38;;;;;;;3.91;73.16;99648.22;5016682;28;20129;-72
2022/12/22 12:40:47;;;;;;;3.45;0.30;;;;;;;3.90;73.30;99641.34;5012091;28;20041;-72
2022/12/22 12:43:15;;;;;;;3.55;0.30;;;;;;;3.90;73.48;99643.94;5014982;28;20076;-73
2022/12/22 12:45:44;;;;;;;4.15;0.40;;;;;;;3.88;73.32;99643.09;5017374;28;20048;-72
2022/12/22 12:48:44;;;;;;;3.45;0.30;;;;;;;3.89;73.51;99641.34;5017997;28;20077;-74
2022/12/22 12:51:44;;;;;;;1.00;0.30;;;;;;;3.87;73.33;99651.72;5016121;28;20050;-72
2022/12/22 12:54:42;;;;;;;0.90;0.30;;;;;;;3.86;73.30;99643.97;5015177;28;20045;-72
2022/12/22 12:57:24;;;;;;;1.42;0.30;;;;;;;3.85;73.28;99650.00;5016414;28;20045;-72
2022/12/22 12:59:53;;;;;;;3.83;0.63;;;;;;;3.80;73.67;99637.97;5015561;28;20056;-72
2022/12/22 13:02:40;;;;;;;3.63;0.40;;;;;;;3.81;73.83;99639.72;5018324;28;20045;-72
2022/12/22 13:05:35;;;;;;;3.15;0.68;;;;;;;3.82;73.84;99633.66;5017641;28;20046;-72
2022/12/22 13:08:23;;;;;;;5.37;0.50;;;;;;;3.82;73.82;99649.16;5017475;28;20054;-72
2022/12/22 13:11:21;;;;;;;2.45;0.95;;;;;;;3.83;73.96;99652.59;5016069;28;20879;-72
2022/12/22 13:13:50;;;;;;;2.90;0.47;;;;;;;3.82;73.47;99654.31;5014068;28;20103;-73
2022/12/22 13:16:29;;;;;;;1.08;0.38;;;;;;;3.81;73.55;99650.03;5017766;28;20055;-72
2022/12/22 13:18:58;;;;;;;4.03;0.50;;;;;;;3.82;73.80;99645.72;5019475;28;20053;-72
2022/12/22 13:21:29;;;;;;;3.72;0.60;;;;;;;3.83;73.87;99657.75;5017813;28;20093;-72
2022/12/22 13:24:00;;;;;;;1.70;0.40;;;;;;;3.82;74.17;99649.16;5012737;28;20486;-72
2022/12/22 13:26:33;;;;;;;5.22;1.35;;;;;;;3.82;74.32;99646.56;5020249;28;20070;-72
2022/12/22 13:29:03;;;;;;;6.25;1.15;;;;;;;3.83;73.76;99639.69;5013049;28;20045;-72
2022/12/22 13:31:35;;;;;;;5.40;0.85;;;;;;;3.84;74.15;99646.53;5012853;28;20057;-72
2022/12/22 13:34:07;;;;;;;1.67;0.43;;;;;;;3.83;73.85;99645.69;5020346;28;20132;-72
2022/12/22 13:36:34;;;;;;;3.33;0.63;;;;;;;3.83;73.95;99645.69;5015515;28;20045;-72
2022/12/22 13:39:04;;;;;;;4.82;0.35;;;;;;;3.85;73.88;99642.25;5017168;28;20072;-73
2022/12/22 13:41:33;;;;;;;3.22;0.45;;;;;;;3.82;74.36;99638.81;5019400;28;20045;-72
2022/12/22 13:44:06;;;;;;;4.80;0.65;;;;;;;3.86;74.00;99644.81;5019415;28;20041;-72
2022/12/22 13:46:34;;;;;;;2.63;0.73;;;;;;;3.87;73.83;99643.06;5017277;28;20049;-72
2022/12/22 13:49:03;;;;;;;2.00;0.50;;;;;;;3.87;73.85;99646.53;5019662;28;20416;-72
2022/12/22 13:51:35;;;;;;;2.15;0.40;;;;;;;3.88;74.32;99642.22;5017454;28;20089;-71
2022/12/22 13:54:09;;;;;;;2.42;0.90;;;;;;;3.88;73.89;99642.22;5013121;28;20497;-71
2022/12/22 13:56:41;;;;;;;1.92;0.50;;;;;;;3.85;73.96;99632.78;5017165;28;20057;-72
2022/12/22 13:59:27;;;;;;;5.55;0.52;;;;;;;3.89;74.30;99631.88;5018612;28;20697;-73
2022/12/22 14:01:58;;;;;;;5.05;0.52;;;;;;;3.91;74.17;99642.19;5017151;28;20056;-72
2022/12/22 14:04:25;;;;;;;1.25;0.60;;;;;;;3.91;74.01;99637.03;5021664;28;20519;-72
2022/12/22 14:06:53;;;;;;;2.42;0.88;;;;;;;3.92;74.46;99638.72;5020426;28;20048;-72
2022/12/22 14:09:22;;;;;;;5.78;0.57;;;;;;;3.92;73.96;99639.59;5022428;28;20045;-72
2022/12/22 14:11:54;;;;;;;3.28;0.90;;;;;;;3.93;74.38;99635.28;5022202;28;20042;-73
2022/12/22 14:14:25;;;;;;;2.80;0.75;;;;;;;3.94;74.30;99637.00;5015895;28;20060;-72
2022/12/22 14:16:54;;;;;;;4.05;0.70;;;;;;;3.95;74.13;99633.53;5017758;28;20057;-72
2022/12/22 14:19:22;;;;;;;3.13;0.45;;;;;;;3.92;73.98;99626.66;5019776;28;20052;-72
2022/12/22 14:21:54;;;;;;;4.70;0.70;;;;;;;3.94;74.11;99635.25;5020879;28;20052;-72
2022/12/22 14:24:25;;;;;;;3.10;0.45;;;;;;;3.97;74.19;99631.78;5019335;28;20052;-72
2022/12/22 14:26:54;;;;;;;1.52;0.80;;;;;;;3.97;74.15;99631.78;5014825;28;20056;-72
2022/12/22 14:29:26;;;;;;;2.47;0.77;;;;;;;3.97;74.08;99624.03;5020356;28;20408;-71
2022/12/22 14:31:54;;;;;;;3.55;0.55;;;;;;;3.98;74.29;99623.16;5023279;28;20547;-72
2022/12/22 14:34:26;;;;;;;2.50;0.52;;;;;;;3.98;74.36;99612.81;5022479;28;20132;-72
2022/12/22 14:36:53;;;;;;;7.00;0.70;;;;;;;3.98;74.76;99623.16;5022784;28;20677;-72
2022/12/22 14:39:23;;;;;;;5.97;0.70;;;;;;;4.00;74.47;99621.44;5021095;28;20046;-72
2022/12/22 14:41:53;;;;;;;6.03;1.15;;;;;;;3.99;74.51;99612.81;5019910;28;20630;-73
2022/12/22 14:44:24;;;;;;;4.68;0.88;;;;;;;4.01;74.65;99617.97;5021225;28;20050;-72
2022/12/22 14:47:13;;;;;;;3.97;0.77;;;;;;;4.03;74.77;99616.22;5016615;28;20053;-71
2022/12/22 14:49:46;;;;;;;4.80;0.95;;;;;;;4.02;74.57;99614.53;5019264;28;20050;-72
2022/12/22 14:52:21;;;;;;;5.18;0.60;;;;;;;4.03;74.35;99611.06;5020487;28;20048;-72
2022/12/22 14:54:51;;;;;;;2.10;0.52;;;;;;;4.03;74.41;99616.22;5020795;28;20046;-72
2022/12/22 14:57:23;;;;;;;0.95;0.77;;;;;;;4.04;74.56;99615.34;5022705;28;20049;-71
2022/12/22 15:00:06;;;;;;;2.88;0.65;;;;;;;4.04;74.36;99612.75;5019931;28;20045;-72
2022/12/22 15:02:35;;;;;;;1.88;0.57;;;;;;;4.05;74.57;99611.91;5023256;28;20117;-72
2022/12/22 15:05:25;;;;;;;6.10;1.55;;;;;;;4.05;74.38;99611.91;5017325;28;20051;-71
2022/12/22 15:07:55;;;;;;;1.95;0.68;;;;;;;4.06;74.49;99616.19;5018766;28;20052;-72
2022/12/22 15:10:24;;;;;;;6.35;0.65;;;;;;;4.06;75.06;99608.44;5019672;28;20064;-72
2022/12/22 15:12:58;;;;;;;3.75;0.68;;;;;;;4.08;74.76;99609.28;5021295;28;20049;-72
2022/12/22 15:15:27;;;;;;;2.25;0.77;;;;;;;4.06;74.46;99606.69;5013766;28;20076;-72
2022/12/22 15:17:54;;;;;;;1.33;0.60;;;;;;;4.08;74.75;99608.44;5021529;28;20046;-72
2022/12/22 15:20:23;;;;;;;2.97;1.33;;;;;;;4.09;74.79;99610.13;5019675;28;20046;-72
2022/12/22 15:22:50;;;;;;;2.05;0.80;;;;;;;4.06;75.01;99595.53;5020298;28;20072;-72
2022/12/22 15:25:20;;;;;;;2.72;0.60;;;;;;;4.09;74.60;99603.25;5020535;28;20058;-72
2022/12/22 15:27:47;;;;;;;5.28;1.15;;;;;;;4.08;74.89;99604.13;5019224;28;20536;-72
2022/12/22 15:30:18;;;;;;;5.18;0.90;;;;;;;4.10;74.45;99596.34;5019537;28;20132;-72
2022/12/22 15:32:47;;;;;;;5.85;1.15;;;;;;;4.03;74.52;99587.81;5019216;28;20064;-72
2022/12/22 15:35:24;;;;;;;6.10;0.88;;;;;;;4.10;74.67;99594.63;5020547;28;20054;-71
2022/12/22 15:37:51;;;;;;;3.00;0.82;;;;;;;4.06;74.97;99596.38;5020679;28;20046;-72